sensor_id;sensor_type;location;lat;lon;timestamp;pressure;altitude;pressure_sealevel;temperature;humidity
54948;BME280;41113;41.882;12.530;2023-08-06T00:01:33;100259.53;;;21.85;78.16
54948;BME280;41113;41.882;12.530;2023-08-06T00:03:59;100256.72;;;21.60;79.60
54948;BME280;41113;41.882;12.530;2023-08-06T00:06:25;100255.97;;;21.39;80.79
54948;BME280;41113;41.882;12.530;2023-08-06T00:08:50;100260.00;;;21.30;81.28
54948;BME280;41113;41.882;12.530;2023-08-06T00:11:15;100260.66;;;21.19;81.98
54948;BME280;41113;41.882;12.530;2023-08-06T00:13:40;100263.22;;;21.14;81.98
54948;BME280;41113;41.882;12.530;2023-08-06T00:16:09;100263.22;;;21.14;82.14
54948;BME280;41113;41.882;12.530;2023-08-06T00:18:34;100261.94;;;21.17;82.00
54948;BME280;41113;41.882;12.530;2023-08-06T00:20:59;100255.63;;;21.09;82.03
54948;BME280;41113;41.882;12.530;2023-08-06T00:23:25;100257.16;;;20.99;82.93
54948;BME280;41113;41.882;12.530;2023-08-06T00:25:50;100259.25;;;20.97;82.96
54948;BME280;41113;41.882;12.530;2023-08-06T00:28:15;100262.22;;;20.89;83.62
54948;BME280;41113;41.882;12.530;2023-08-06T00:30:40;100267.06;;;20.87;83.56
54948;BME280;41113;41.882;12.530;2023-08-06T00:33:06;100264.94;;;20.89;84.03
54948;BME280;41113;41.882;12.530;2023-08-06T00:35:31;100260.75;;;20.93;83.46
54948;BME280;41113;41.882;12.530;2023-08-06T00:37:56;100270.00;;;20.78;84.06
54948;BME280;41113;41.882;12.530;2023-08-06T00:40:21;100269.16;;;20.71;84.23
54948;BME280;41113;41.882;12.530;2023-08-06T00:42:47;100275.06;;;20.68;84.04
54948;BME280;41113;41.882;12.530;2023-08-06T00:45:12;100271.09;;;20.58;83.79
54948;BME280;41113;41.882;12.530;2023-08-06T00:47:38;100270.06;;;20.52;83.69
54948;BME280;41113;41.882;12.530;2023-08-06T00:50:04;100271.31;;;20.56;83.83
54948;BME280;41113;41.882;12.530;2023-08-06T00:52:30;100266.69;;;20.50;83.46
54948;BME280;41113;41.882;12.530;2023-08-06T00:54:55;100275.50;;;20.52;83.27
54948;BME280;41113;41.882;12.530;2023-08-06T00:57:21;100272.94;;;20.37;83.12
54948;BME280;41113;41.882;12.530;2023-08-06T00:59:49;100278.41;;;20.31;83.06
54948;BME280;41113;41.882;12.530;2023-08-06T01:02:14;100272.56;;;20.40;83.05
54948;BME280;41113;41.882;12.530;2023-08-06T01:04:39;100273.81;;;20.44;82.67
54948;BME280;41113;41.882;12.530;2023-08-06T01:07:19;100275.28;;;20.40;82.73
54948;BME280;41113;41.882;12.530;2023-08-06T01:15:10;100265.41;;;20.33;83.05
54948;BME280;41113;41.882;12.530;2023-08-06T01:17:36;100271.06;;;20.38;82.28
54948;BME280;41113;41.882;12.530;2023-08-06T01:20:02;100266.25;;;20.40;82.32
54948;BME280;41113;41.882;12.530;2023-08-06T01:22:27;100259.31;;;20.31;82.26
54948;BME280;41113;41.882;12.530;2023-08-06T01:24:52;100258.91;;;20.34;81.96
54948;BME280;41113;41.882;12.530;2023-08-06T01:29:44;100275.03;;;20.09;82.95
54948;BME280;41113;41.882;12.530;2023-08-06T01:32:12;100273.16;;;20.09;82.98
54948;BME280;41113;41.882;12.530;2023-08-06T01:34:39;100272.94;;;19.98;83.28
54948;BME280;41113;41.882;12.530;2023-08-06T01:37:06;100257.81;;;19.88;83.63
54948;BME280;41113;41.882;12.530;2023-08-06T01:39:35;100255.53;;;19.92;83.84
54948;BME280;41113;41.882;12.530;2023-08-06T01:42:00;100264.34;;;20.07;83.02
54948;BME280;41113;41.882;12.530;2023-08-06T01:44:26;100277.13;;;20.00;83.05
54948;BME280;41113;41.882;12.530;2023-08-06T01:46:51;100275.47;;;20.19;82.92
54948;BME280;41113;41.882;12.530;2023-08-06T01:49:16;100272.53;;;20.34;81.80
54948;BME280;41113;41.882;12.530;2023-08-06T01:51:41;100272.53;;;20.34;81.05
54948;BME280;41113;41.882;12.530;2023-08-06T01:54:07;100277.75;;;20.02;82.13
54948;BME280;41113;41.882;12.530;2023-08-06T01:56:32;100274.59;;;19.92;82.57
54948;BME280;41113;41.882;12.530;2023-08-06T01:58:57;100275.66;;;20.04;82.51
54948;BME280;41113;41.882;12.530;2023-08-06T02:01:22;100267.88;;;19.88;82.93
54948;BME280;41113;41.882;12.530;2023-08-06T02:03:48;100270.78;;;19.73;83.97
54948;BME280;41113;41.882;12.530;2023-08-06T02:06:13;100259.25;;;19.71;84.04
54948;BME280;41113;41.882;12.530;2023-08-06T02:08:38;100261.34;;;19.63;84.36
54948;BME280;41113;41.882;12.530;2023-08-06T02:11:04;100266.16;;;19.74;84.08
54948;BME280;41113;41.882;12.530;2023-08-06T02:13:30;100265.75;;;19.83;83.25
54948;BME280;41113;41.882;12.530;2023-08-06T02:15:55;100266.63;;;19.84;82.66
54948;BME280;41113;41.882;12.530;2023-08-06T02:18:20;100259.44;;;19.63;83.74
54948;BME280;41113;41.882;12.530;2023-08-06T02:21:06;100266.13;;;19.54;84.63
54948;BME280;41113;41.882;12.530;2023-08-06T02:23:31;100249.97;;;19.52;84.93
54948;BME280;41113;41.882;12.530;2023-08-06T02:25:57;100259.84;;;19.53;84.93
54948;BME280;41113;41.882;12.530;2023-08-06T02:28:22;100276.81;;;19.55;84.93
54948;BME280;41113;41.882;12.530;2023-08-06T02:30:50;100275.34;;;19.53;85.00
54948;BME280;41113;41.882;12.530;2023-08-06T02:33:16;100261.91;;;19.51;85.06
54948;BME280;41113;41.882;12.530;2023-08-06T02:35:41;100252.22;;;19.42;85.14
54948;BME280;41113;41.882;12.530;2023-08-06T02:38:06;100251.16;;;19.37;85.28
54948;BME280;41113;41.882;12.530;2023-08-06T02:40:31;100248.00;;;19.33;85.93
54948;BME280;41113;41.882;12.530;2023-08-06T02:42:57;100246.72;;;19.29;85.85
54948;BME280;41113;41.882;12.530;2023-08-06T02:45:22;100248.44;;;19.43;85.01
54948;BME280;41113;41.882;12.530;2023-08-06T02:47:47;100252.63;;;19.46;84.94
54948;BME280;41113;41.882;12.530;2023-08-06T02:50:12;100256.63;;;19.43;84.52
54948;BME280;41113;41.882;12.530;2023-08-06T02:52:37;100250.22;;;19.57;84.23
54948;BME280;41113;41.882;12.530;2023-08-06T02:55:05;100246.22;;;19.53;83.74
54948;BME280;41113;41.882;12.530;2023-08-06T02:57:30;100238.28;;;19.65;83.71
54948;BME280;41113;41.882;12.530;2023-08-06T02:59:55;100228.88;;;19.81;82.97
54948;BME280;41113;41.882;12.530;2023-08-06T03:02:21;100224.72;;;19.85;82.17
54948;BME280;41113;41.882;12.530;2023-08-06T03:04:46;100211.72;;;19.87;82.14
54948;BME280;41113;41.882;12.530;2023-08-06T03:07:11;100223.03;;;19.84;82.01
54948;BME280;41113;41.882;12.530;2023-08-06T03:09:36;100223.84;;;19.78;82.32
54948;BME280;41113;41.882;12.530;2023-08-06T03:12:01;100221.34;;;19.96;82.23
54948;BME280;41113;41.882;12.530;2023-08-06T03:14:27;100227.66;;;20.16;81.25
54948;BME280;41113;41.882;12.530;2023-08-06T03:16:52;100218.44;;;20.17;80.82
54948;BME280;41113;41.882;12.530;2023-08-06T03:19:17;100211.31;;;20.16;80.83
54948;BME280;41113;41.882;12.530;2023-08-06T03:21:42;100211.94;;;20.18;80.87
54948;BME280;41113;41.882;12.530;2023-08-06T03:24:08;100202.25;;;20.16;80.41
54948;BME280;41113;41.882;12.530;2023-08-06T03:26:33;100218.19;;;20.06;80.84
54948;BME280;41113;41.882;12.530;2023-08-06T03:28:58;100206.47;;;20.05;80.92
54948;BME280;41113;41.882;12.530;2023-08-06T03:31:23;100210.88;;;20.06;81.06
54948;BME280;41113;41.882;12.530;2023-08-06T03:33:49;100206.66;;;20.10;81.05
54948;BME280;41113;41.882;12.530;2023-08-06T03:36:14;100206.88;;;20.15;81.25
54948;BME280;41113;41.882;12.530;2023-08-06T03:38:39;100206.66;;;20.10;80.96
54948;BME280;41113;41.882;12.530;2023-08-06T03:41:04;100210.88;;;20.00;81.19
54948;BME280;41113;41.882;12.530;2023-08-06T03:43:30;100222.59;;;19.94;81.54
54948;BME280;41113;41.882;12.530;2023-08-06T03:45:55;100217.16;;;19.87;81.76
54948;BME280;41113;41.882;12.530;2023-08-06T03:48:20;100219.84;;;19.74;82.43
54948;BME280;41113;41.882;12.530;2023-08-06T03:50:45;100221.72;;;19.67;83.12
54948;BME280;41113;41.882;12.530;2023-08-06T03:53:11;100214.19;;;19.69;83.25
54948;BME280;41113;41.882;12.530;2023-08-06T03:55:36;100209.56;;;19.76;82.64
54948;BME280;41113;41.882;12.530;2023-08-06T03:58:01;100211.47;;;19.82;82.33
54948;BME280;41113;41.882;12.530;2023-08-06T04:00:26;100214.59;;;19.72;82.73
54948;BME280;41113;41.882;12.530;2023-08-06T04:02:52;100211.25;;;19.64;83.29
54948;BME280;41113;41.882;12.530;2023-08-06T04:05:18;100208.53;;;19.64;83.36
54948;BME280;41113;41.882;12.530;2023-08-06T04:07:43;100218.78;;;19.62;83.66
54948;BME280;41113;41.882;12.530;2023-08-06T04:10:08;100225.91;;;19.63;83.69
54948;BME280;41113;41.882;12.530;2023-08-06T04:12:33;100216.28;;;19.60;83.22
54948;BME280;41113;41.882;12.530;2023-08-06T04:15:01;100229.28;;;19.65;83.25
54948;BME280;41113;41.882;12.530;2023-08-06T04:17:27;100229.06;;;19.60;83.02
54948;BME280;41113;41.882;12.530;2023-08-06T04:19:53;100227.16;;;19.60;83.15
54948;BME280;41113;41.882;12.530;2023-08-06T04:22:18;100221.53;;;19.68;83.01
54948;BME280;41113;41.882;12.530;2023-08-06T04:24:44;100229.69;;;19.75;82.52
54948;BME280;41113;41.882;12.530;2023-08-06T04:27:09;100224.06;;;19.89;82.19
54948;BME280;41113;41.882;12.530;2023-08-06T04:29:35;100217.53;;;20.70;79.21
54948;BME280;41113;41.882;12.530;2023-08-06T04:32:00;100220.00;;;21.81;74.10
54948;BME280;41113;41.882;12.530;2023-08-06T04:34:26;100223.91;;;22.91;68.76
54948;BME280;41113;41.882;12.530;2023-08-06T04:36:51;100214.84;;;24.40;62.98
54948;BME280;41113;41.882;12.530;2023-08-06T04:39:16;100205.38;;;24.83;59.90
54948;BME280;41113;41.882;12.530;2023-08-06T04:41:41;100208.25;;;25.28;58.38
54948;BME280;41113;41.882;12.530;2023-08-06T04:44:06;100213.41;;;25.53;57.20
54948;BME280;41113;41.882;12.530;2023-08-06T04:46:32;100208.50;;;25.84;56.07
54948;BME280;41113;41.882;12.530;2023-08-06T04:48:57;100202.19;;;26.17;55.44
54948;BME280;41113;41.882;12.530;2023-08-06T04:51:22;100218.47;;;26.52;53.77
54948;BME280;41113;41.882;12.530;2023-08-06T04:53:47;100222.25;;;26.46;53.52
54948;BME280;41113;41.882;12.530;2023-08-06T04:56:12;100225.13;;;26.56;53.28
54948;BME280;41113;41.882;12.530;2023-08-06T04:58:38;100223.97;;;27.07;52.62
54948;BME280;41113;41.882;12.530;2023-08-06T05:01:03;100218.13;;;27.69;50.30
54948;BME280;41113;41.882;12.530;2023-08-06T05:03:28;100218.09;;;28.65;48.65
54948;BME280;41113;41.882;12.530;2023-08-06T05:05:54;100211.84;;;29.42;46.14
54948;BME280;41113;41.882;12.530;2023-08-06T05:08:19;100220.81;;;30.82;42.50
54948;BME280;41113;41.882;12.530;2023-08-06T05:10:45;100224.97;;;30.94;41.63
54948;BME280;41113;41.882;12.530;2023-08-06T05:13:10;100223.94;;;31.45;40.89
54948;BME280;41113;41.882;12.530;2023-08-06T05:15:35;100215.72;;;31.24;40.33
54948;BME280;41113;41.882;12.530;2023-08-06T05:18:00;100219.75;;;30.52;42.12
54948;BME280;41113;41.882;12.530;2023-08-06T05:20:26;100221.44;;;30.33;42.35
54948;BME280;41113;41.882;12.530;2023-08-06T05:22:51;100222.53;;;30.42;42.13
54948;BME280;41113;41.882;12.530;2023-08-06T05:25:16;100224.22;;;30.08;42.81
54948;BME280;41113;41.882;12.530;2023-08-06T05:27:42;100215.28;;;29.65;44.27
54948;BME280;41113;41.882;12.530;2023-08-06T05:30:07;100210.03;;;29.84;43.73
54948;BME280;41113;41.882;12.530;2023-08-06T05:32:33;100206.47;;;29.93;43.98
54948;BME280;41113;41.882;12.530;2023-08-06T05:34:58;100211.16;;;30.44;42.58
54948;BME280;41113;41.882;12.530;2023-08-06T05:37:23;100209.47;;;31.48;40.47
54948;BME280;41113;41.882;12.530;2023-08-06T05:39:48;100208.75;;;31.81;40.23
54948;BME280;41113;41.882;12.530;2023-08-06T05:42:13;100203.94;;;30.73;41.52
54948;BME280;41113;41.882;12.530;2023-08-06T05:44:39;100205.16;;;31.21;41.11
54948;BME280;41113;41.882;12.530;2023-08-06T05:47:04;100204.16;;;30.97;41.35
54948;BME280;41113;41.882;12.530;2023-08-06T05:49:29;100209.22;;;30.64;41.82
54948;BME280;41113;41.882;12.530;2023-08-06T05:51:55;100205.81;;;30.88;41.59
54948;BME280;41113;41.882;12.530;2023-08-06T05:54:20;100211.72;;;31.46;40.01
54948;BME280;41113;41.882;12.530;2023-08-06T05:56:45;100205.31;;;30.76;41.37
54948;BME280;41113;41.882;12.530;2023-08-06T05:59:10;100192.59;;;29.78;43.69
54948;BME280;41113;41.882;12.530;2023-08-06T06:01:36;100198.13;;;29.88;43.38
54948;BME280;41113;41.882;12.530;2023-08-06T06:04:01;100198.94;;;29.68;44.07
54948;BME280;41113;41.882;12.530;2023-08-06T06:06:26;100199.56;;;29.08;45.71
54948;BME280;41113;41.882;12.530;2023-08-06T06:08:52;100197.63;;;30.32;42.97
54948;BME280;41113;41.882;12.530;2023-08-06T06:11:17;100203.13;;;30.68;41.76
54948;BME280;41113;41.882;12.530;2023-08-06T06:13:44;100200.94;;;30.03;43.47
54948;BME280;41113;41.882;12.530;2023-08-06T06:16:09;100207.47;;;30.89;42.01
54948;BME280;41113;41.882;12.530;2023-08-06T06:18:34;100212.56;;;32.88;38.77
54948;BME280;41113;41.882;12.530;2023-08-06T06:21:00;100207.63;;;33.03;38.61
54948;BME280;41113;41.882;12.530;2023-08-06T06:23:25;100205.13;;;33.87;35.83
54948;BME280;41113;41.882;12.530;2023-08-06T06:25:51;100204.78;;;31.93;39.54
54948;BME280;41113;41.882;12.530;2023-08-06T06:28:19;100197.97;;;31.20;40.37
54948;BME280;41113;41.882;12.530;2023-08-06T06:30:44;100202.25;;;31.47;39.96
54948;BME280;41113;41.882;12.530;2023-08-06T06:33:10;100203.50;;;31.75;39.88
54948;BME280;41113;41.882;12.530;2023-08-06T06:35:35;100198.13;;;31.94;39.66
54948;BME280;41113;41.882;12.530;2023-08-06T06:38:00;100205.66;;;31.39;41.36
54948;BME280;41113;41.882;12.530;2023-08-06T06:40:26;100204.94;;;32.06;40.26
54948;BME280;41113;41.882;12.530;2023-08-06T06:42:51;100202.44;;;32.97;37.62
54948;BME280;41113;41.882;12.530;2023-08-06T06:45:16;100204.41;;;33.15;37.93
54948;BME280;41113;41.882;12.530;2023-08-06T06:47:41;100201.84;;;33.00;37.94
54948;BME280;41113;41.882;12.530;2023-08-06T06:50:07;100203.69;;;32.57;38.30
54948;BME280;41113;41.882;12.530;2023-08-06T06:52:32;100188.63;;;33.53;37.15
54948;BME280;41113;41.882;12.530;2023-08-06T06:54:57;100196.59;;;33.97;36.15
54948;BME280;41113;41.882;12.530;2023-08-06T06:57:22;100189.13;;;33.13;37.88
54948;BME280;41113;41.882;12.530;2023-08-06T06:59:48;100200.72;;;32.14;39.59
54948;BME280;41113;41.882;12.530;2023-08-06T07:02:13;100197.28;;;31.44;41.21
54948;BME280;41113;41.882;12.530;2023-08-06T07:04:38;100204.63;;;31.24;42.36
54948;BME280;41113;41.882;12.530;2023-08-06T07:07:03;100205.91;;;30.42;43.54
54948;BME280;41113;41.882;12.530;2023-08-06T07:09:29;100214.75;;;29.93;45.38
54948;BME280;41113;41.882;12.530;2023-08-06T07:11:54;100211.22;;;29.25;46.75
54948;BME280;41113;41.882;12.530;2023-08-06T07:14:19;100205.75;;;28.78;48.62
54948;BME280;41113;41.882;12.530;2023-08-06T07:16:44;100206.44;;;28.58;48.72
54948;BME280;41113;41.882;12.530;2023-08-06T07:19:10;100199.91;;;28.74;49.12
54948;BME280;41113;41.882;12.530;2023-08-06T07:21:35;100213.13;;;28.62;50.05
54948;BME280;41113;41.882;12.530;2023-08-06T07:24:00;100203.00;;;28.36;51.43
54948;BME280;41113;41.882;12.530;2023-08-06T07:26:26;100210.84;;;27.90;53.13
54948;BME280;41113;41.882;12.530;2023-08-06T07:28:53;100210.50;;;27.59;54.54
54948;BME280;41113;41.882;12.530;2023-08-06T07:31:18;100215.13;;;28.03;54.67
54948;BME280;41113;41.882;12.530;2023-08-06T07:33:43;100212.50;;;28.55;52.49
54948;BME280;41113;41.882;12.530;2023-08-06T07:36:12;100225.84;;;27.99;53.29
54948;BME280;41113;41.882;12.530;2023-08-06T07:38:37;100229.97;;;27.70;54.48
54948;BME280;41113;41.882;12.530;2023-08-06T07:41:02;100234.19;;;27.55;55.10
54948;BME280;41113;41.882;12.530;2023-08-06T07:43:28;100225.81;;;27.45;55.25
54948;BME280;41113;41.882;12.530;2023-08-06T07:45:53;100233.00;;;27.46;55.91
54948;BME280;41113;41.882;12.530;2023-08-06T07:48:18;100240.72;;;27.01;56.87
54948;BME280;41113;41.882;12.530;2023-08-06T07:50:43;100236.53;;;26.81;58.63
54948;BME280;41113;41.882;12.530;2023-08-06T07:53:15;100243.78;;;27.48;56.94
54948;BME280;41113;41.882;12.530;2023-08-06T07:55:40;100236.69;;;28.06;54.64
54948;BME280;41113;41.882;12.530;2023-08-06T07:58:05;100224.56;;;28.39;53.48
54948;BME280;41113;41.882;12.530;2023-08-06T08:00:30;100233.47;;;28.51;52.79
54948;BME280;41113;41.882;12.530;2023-08-06T08:02:56;100236.81;;;28.53;52.51
54948;BME280;41113;41.882;12.530;2023-08-06T08:05:21;100244.13;;;28.74;52.51
54948;BME280;41113;41.882;12.530;2023-08-06T08:07:46;100234.03;;;28.53;53.06
54948;BME280;41113;41.882;12.530;2023-08-06T08:10:11;100241.16;;;28.12;53.48
54948;BME280;41113;41.882;12.530;2023-08-06T08:12:37;100243.13;;;27.89;54.47
54948;BME280;41113;41.882;12.530;2023-08-06T08:15:02;100250.00;;;27.87;53.84
54948;BME280;41113;41.882;12.530;2023-08-06T08:17:28;100248.84;;;28.10;53.71
54948;BME280;41113;41.882;12.530;2023-08-06T08:19:53;100249.97;;;28.41;52.19
54948;BME280;41113;41.882;12.530;2023-08-06T08:22:18;100245.50;;;28.72;51.45
54948;BME280;41113;41.882;12.530;2023-08-06T08:24:44;100238.59;;;29.17;50.32
54948;BME280;41113;41.882;12.530;2023-08-06T08:27:09;100235.53;;;29.13;50.29
54948;BME280;41113;41.882;12.530;2023-08-06T08:29:34;100241.50;;;28.52;51.80
54948;BME280;41113;41.882;12.530;2023-08-06T08:31:59;100246.13;;;28.42;51.12
54948;BME280;41113;41.882;12.530;2023-08-06T08:34:24;100236.88;;;28.63;50.81
54948;BME280;41113;41.882;12.530;2023-08-06T08:36:50;100233.72;;;28.87;49.72
54948;BME280;41113;41.882;12.530;2023-08-06T08:39:15;100230.41;;;28.90;49.03
54948;BME280;41113;41.882;12.530;2023-08-06T08:41:40;100222.06;;;28.79;49.15
54948;BME280;41113;41.882;12.530;2023-08-06T08:44:07;100226.81;;;28.47;50.16
54948;BME280;41113;41.882;12.530;2023-08-06T08:46:33;100219.13;;;28.22;50.99
54948;BME280;41113;41.882;12.530;2023-08-06T08:49:00;100225.06;;;28.04;51.93
54948;BME280;41113;41.882;12.530;2023-08-06T08:51:27;100219.84;;;28.07;51.94
54948;BME280;41113;41.882;12.530;2023-08-06T08:53:53;100228.75;;;28.14;51.70
54948;BME280;41113;41.882;12.530;2023-08-06T08:56:20;100222.53;;;27.97;51.23
54948;BME280;41113;41.882;12.530;2023-08-06T08:58:45;100208.50;;;28.36;50.88
54948;BME280;41113;41.882;12.530;2023-08-06T09:01:11;100221.88;;;28.54;50.48
54948;BME280;41113;41.882;12.530;2023-08-06T09:03:36;100215.75;;;28.47;49.53
54948;BME280;41113;41.882;12.530;2023-08-06T09:06:01;100221.13;;;28.64;48.35
54948;BME280;41113;41.882;12.530;2023-08-06T09:08:29;100219.47;;;28.63;47.30
54948;BME280;41113;41.882;12.530;2023-08-06T09:10:55;100217.72;;;28.51;47.79
54948;BME280;41113;41.882;12.530;2023-08-06T09:13:21;100226.75;;;28.37;48.44
54948;BME280;41113;41.882;12.530;2023-08-06T09:15:48;100234.69;;;28.65;48.62
54948;BME280;41113;41.882;12.530;2023-08-06T09:18:15;100235.69;;;28.91;47.91
54948;BME280;41113;41.882;12.530;2023-08-06T09:20:49;100237.16;;;29.04;47.09
54948;BME280;41113;41.882;12.530;2023-08-06T09:23:15;100247.00;;;28.85;46.89
54948;BME280;41113;41.882;12.530;2023-08-06T09:25:40;100241.97;;;28.81;46.46
54948;BME280;41113;41.882;12.530;2023-08-06T09:28:06;100226.16;;;28.72;46.56
54948;BME280;41113;41.882;12.530;2023-08-06T09:30:32;100230.88;;;28.34;48.19
54948;BME280;41113;41.882;12.530;2023-08-06T09:32:58;100230.75;;;28.56;47.70
54948;BME280;41113;41.882;12.530;2023-08-06T09:35:23;100223.97;;;28.32;47.94
54948;BME280;41113;41.882;12.530;2023-08-06T09:37:48;100218.97;;;28.02;48.29
54948;BME280;41113;41.882;12.530;2023-08-06T09:40:26;100214.78;;;28.26;47.92
54948;BME280;41113;41.882;12.530;2023-08-06T09:42:52;100211.00;;;28.37;45.99
54948;BME280;41113;41.882;12.530;2023-08-06T09:45:17;100214.03;;;28.36;45.61
54948;BME280;41113;41.882;12.530;2023-08-06T09:47:43;100207.59;;;28.62;46.18
54948;BME280;41113;41.882;12.530;2023-08-06T09:50:20;100206.53;;;28.68;46.68
54948;BME280;41113;41.882;12.530;2023-08-06T09:52:48;100213.34;;;28.61;47.14
54948;BME280;41113;41.882;12.530;2023-08-06T09:55:15;100210.53;;;28.50;47.76
54948;BME280;41113;41.882;12.530;2023-08-06T09:57:42;100217.41;;;28.43;47.44
54948;BME280;41113;41.882;12.530;2023-08-06T10:00:08;100220.09;;;28.33;46.39
54948;BME280;41113;41.882;12.530;2023-08-06T10:02:35;100213.94;;;28.26;45.98
54948;BME280;41113;41.882;12.530;2023-08-06T10:05:00;100209.03;;;28.33;47.48
54948;BME280;41113;41.882;12.530;2023-08-06T10:07:26;100196.41;;;28.42;47.37
54948;BME280;41113;41.882;12.530;2023-08-06T10:09:52;100188.97;;;28.47;48.13
54948;BME280;41113;41.882;12.530;2023-08-06T10:12:17;100192.81;;;28.41;47.38
54948;BME280;41113;41.882;12.530;2023-08-06T10:14:44;100194.16;;;28.39;47.39
54948;BME280;41113;41.882;12.530;2023-08-06T10:17:10;100191.44;;;28.44;47.70
54948;BME280;41113;41.882;12.530;2023-08-06T10:19:36;100184.59;;;28.57;47.60
54948;BME280;41113;41.882;12.530;2023-08-06T10:22:07;100178.75;;;28.48;47.22
54948;BME280;41113;41.882;12.530;2023-08-06T10:24:45;100174.16;;;28.64;46.71
54948;BME280;41113;41.882;12.530;2023-08-06T10:27:10;100178.38;;;28.76;46.95
54948;BME280;41113;41.882;12.530;2023-08-06T10:29:36;100172.44;;;28.58;46.20
54948;BME280;41113;41.882;12.530;2023-08-06T10:32:01;100173.78;;;28.50;47.04
54948;BME280;41113;41.882;12.530;2023-08-06T10:35:12;100178.75;;;28.48;46.46
54948;BME280;41113;41.882;12.530;2023-08-06T10:37:15;100173.22;;;28.48;45.58
54948;BME280;41113;41.882;12.530;2023-08-06T10:39:47;100185.94;;;28.49;45.78
54948;BME280;41113;41.882;12.530;2023-08-06T10:42:19;100185.34;;;28.42;46.08
54948;BME280;41113;41.882;12.530;2023-08-06T10:47:28;100184.88;;;28.55;45.08
54948;BME280;41113;41.882;12.530;2023-08-06T10:49:54;100188.13;;;28.47;44.35
54948;BME280;41113;41.882;12.530;2023-08-06T10:52:19;100193.78;;;28.62;43.79
54948;BME280;41113;41.882;12.530;2023-08-06T10:54:44;100214.47;;;28.60;43.82
54948;BME280;41113;41.882;12.530;2023-08-06T10:57:09;100219.16;;;28.59;43.56
54948;BME280;41113;41.882;12.530;2023-08-06T10:59:35;100234.50;;;28.40;43.56
54948;BME280;41113;41.882;12.530;2023-08-06T11:02:00;100221.28;;;28.47;43.99
54948;BME280;41113;41.882;12.530;2023-08-06T11:04:30;100231.66;;;28.67;44.33
54948;BME280;41113;41.882;12.530;2023-08-06T11:06:55;100225.59;;;28.70;43.48
54948;BME280;41113;41.882;12.530;2023-08-06T11:09:20;100217.63;;;28.78;44.62
54948;BME280;41113;41.882;12.530;2023-08-06T11:11:46;100210.72;;;28.81;43.75
54948;BME280;41113;41.882;12.530;2023-08-06T11:14:14;100204.38;;;28.80;43.66
54948;BME280;41113;41.882;12.530;2023-08-06T11:16:40;100203.50;;;28.70;44.10
54948;BME280;41113;41.882;12.530;2023-08-06T11:19:07;100197.66;;;28.66;43.97
54948;BME280;41113;41.882;12.530;2023-08-06T11:21:33;100211.84;;;28.38;44.72
54948;BME280;41113;41.882;12.530;2023-08-06T11:23:58;100208.25;;;28.37;43.54
54948;BME280;41113;41.882;12.530;2023-08-06T11:26:23;100198.41;;;28.19;43.48
54948;BME280;41113;41.882;12.530;2023-08-06T11:28:49;100192.78;;;28.04;44.75
54948;BME280;41113;41.882;12.530;2023-08-06T11:31:23;100189.69;;;28.01;44.27
54948;BME280;41113;41.882;12.530;2023-08-06T11:33:55;100199.38;;;28.03;44.04
54948;BME280;41113;41.882;12.530;2023-08-06T11:38:56;100187.06;;;27.84;43.76
54948;BME280;41113;41.882;12.530;2023-08-06T11:41:21;100187.63;;;27.86;43.45
54948;BME280;41113;41.882;12.530;2023-08-06T11:43:46;100185.78;;;27.97;44.20
54948;BME280;41113;41.882;12.530;2023-08-06T11:46:12;100187.41;;;27.93;43.41
54948;BME280;41113;41.882;12.530;2023-08-06T11:48:50;100191.63;;;28.00;43.75
54948;BME280;41113;41.882;12.530;2023-08-06T11:51:15;100195.03;;;28.12;44.18
54948;BME280;41113;41.882;12.530;2023-08-06T11:53:41;100192.78;;;28.04;44.69
54948;BME280;41113;41.882;12.530;2023-08-06T11:56:06;100191.53;;;27.90;45.07
54948;BME280;41113;41.882;12.530;2023-08-06T11:58:31;100193.72;;;27.88;45.45
54948;BME280;41113;41.882;12.530;2023-08-06T12:00:57;100193.72;;;27.88;45.61
54948;BME280;41113;41.882;12.530;2023-08-06T12:03:23;100193.16;;;27.86;45.48
54948;BME280;41113;41.882;12.530;2023-08-06T12:05:53;100184.88;;;27.86;45.34
54948;BME280;41113;41.882;12.530;2023-08-06T12:08:19;100184.72;;;27.98;44.99
54948;BME280;41113;41.882;12.530;2023-08-06T12:10:44;100195.00;;;28.07;45.11
54948;BME280;41113;41.882;12.530;2023-08-06T12:13:11;100189.47;;;28.07;44.14
54948;BME280;41113;41.882;12.530;2023-08-06T12:15:38;100201.59;;;28.01;44.12
54948;BME280;41113;41.882;12.530;2023-08-06T12:18:03;100193.88;;;28.03;44.19
54948;BME280;41113;41.882;12.530;2023-08-06T12:20:28;100196.88;;;28.02;44.32
54948;BME280;41113;41.882;12.530;2023-08-06T12:22:54;100201.34;;;28.08;43.64
54948;BME280;41113;41.882;12.530;2023-08-06T12:25:19;100197.59;;;27.92;43.82
54948;BME280;41113;41.882;12.530;2023-08-06T12:27:44;100206.47;;;27.94;43.93
54948;BME280;41113;41.882;12.530;2023-08-06T12:30:11;100197.59;;;27.92;43.84
54948;BME280;41113;41.882;12.530;2023-08-06T12:32:37;100200.94;;;27.94;43.24
54948;BME280;41113;41.882;12.530;2023-08-06T12:35:03;100202.28;;;27.92;43.31
54948;BME280;41113;41.882;12.530;2023-08-06T12:37:28;100203.88;;;27.82;43.56
54948;BME280;41113;41.882;12.530;2023-08-06T12:39:53;100207.94;;;27.75;43.72
54948;BME280;41113;41.882;12.530;2023-08-06T12:42:19;100201.28;;;27.71;44.57
54948;BME280;41113;41.882;12.530;2023-08-06T12:44:44;100208.75;;;27.70;44.41
54948;BME280;41113;41.882;12.530;2023-08-06T12:47:09;100208.09;;;27.63;44.79